createdAt,value
2018-02-25T00:01:32.914Z,16.10
2018-02-25T00:04:00.444Z,21.97
2018-02-25T00:06:27.952Z,29.40
2018-02-25T00:08:56.249Z,18.03
2018-02-25T00:11:23.763Z,15.03
2018-02-25T00:13:51.283Z,19.80
2018-02-25T00:16:18.790Z,13.87
2018-02-25T00:18:46.311Z,22.07
2018-02-25T00:21:13.810Z,18.10
2018-02-25T00:23:42.116Z,23.80
2018-02-25T00:26:09.618Z,18.60
2018-02-25T00:28:37.135Z,15.50
2018-02-25T00:31:04.691Z,17.80
2018-02-25T00:33:32.214Z,16.70
2018-02-25T00:35:59.716Z,18.20
2018-02-25T00:38:27.240Z,19.33
2018-02-25T00:40:55.511Z,17.57
2018-02-25T00:43:24.279Z,20.37
2018-02-25T00:45:51.783Z,22.60
2018-02-25T00:48:19.306Z,20.50
2018-02-25T00:50:46.811Z,22.17
2018-02-25T00:53:14.363Z,22.33
2018-02-25T00:55:41.863Z,22.70
2018-02-25T00:58:09.378Z,15.80
2018-02-25T01:00:36.956Z,20.63
2018-02-25T01:03:04.476Z,20.47
2018-02-25T01:05:32.780Z,22.33
2018-02-25T01:08:00.291Z,21.90
2018-02-25T01:10:27.887Z,14.80
2018-02-25T01:12:55.395Z,19.00
2018-02-25T01:15:22.919Z,17.70
2018-02-25T01:17:50.418Z,23.30
2018-02-25T01:20:18.701Z,18.43
2018-02-25T01:22:46.204Z,19.17
2018-02-25T01:25:13.718Z,21.20
2018-02-25T01:27:41.213Z,19.70
2018-02-25T01:30:08.778Z,19.63
2018-02-25T01:32:36.283Z,21.23
2018-02-25T01:35:03.806Z,23.53
2018-02-25T01:37:31.307Z,22.37
2018-02-25T01:39:58.830Z,19.60
2018-02-25T01:42:26.351Z,22.77
2018-02-25T01:44:54.636Z,20.03
2018-02-25T01:47:22.147Z,20.43
2018-02-25T01:49:49.662Z,16.90
2018-02-25T01:52:17.163Z,21.50
2018-02-25T01:54:44.679Z,17.43
2018-02-25T01:57:12.192Z,20.10
2018-02-25T01:59:39.711Z,22.30
2018-02-25T02:02:07.210Z,15.63
2018-02-25T02:04:34.734Z,28.87
2018-02-25T02:07:02.235Z,25.80
2018-02-25T02:09:30.518Z,20.10
2018-02-25T02:11:58.787Z,27.60
2018-02-25T02:14:27.091Z,25.60
2018-02-25T02:16:54.593Z,21.63
2018-02-25T02:19:22.115Z,28.13
2018-02-25T02:21:49.618Z,23.13
2018-02-25T02:24:17.134Z,24.27
2018-02-25T02:26:44.638Z,21.53
2018-02-25T02:29:12.235Z,26.90
2018-02-25T02:31:39.731Z,23.87
2018-02-25T02:34:07.254Z,32.37
2018-02-25T02:36:34.763Z,26.77
2018-02-25T02:39:02.291Z,36.53
2018-02-25T02:41:29.828Z,23.17
2018-02-25T02:43:57.390Z,33.03
2018-02-25T02:46:24.900Z,21.97
2018-02-25T02:48:52.423Z,32.60
2018-02-25T02:51:19.923Z,35.93
2018-02-25T02:53:47.446Z,29.30
2018-02-25T02:56:14.967Z,28.60
2018-02-25T02:58:42.480Z,28.40
2018-02-25T03:01:10.090Z,30.20
2018-02-25T03:03:37.595Z,28.20
2018-02-25T03:06:05.115Z,25.27
2018-02-25T03:08:32.623Z,30.47
2018-02-25T03:11:00.147Z,34.30
2018-02-25T03:13:27.683Z,33.40
2018-02-25T03:15:55.238Z,31.20
2018-02-25T03:18:22.742Z,37.33
2018-02-25T03:20:50.358Z,32.50
2018-02-25T03:23:17.878Z,34.80
2018-02-25T03:25:45.405Z,39.10
2018-02-25T03:28:12.938Z,36.57
2018-02-25T03:30:40.468Z,30.70
2018-02-25T03:33:08.746Z,36.90
2018-02-25T03:35:37.035Z,29.63
2018-02-25T03:38:05.310Z,31.83
2018-02-25T03:40:33.602Z,44.73
2018-02-25T03:43:01.158Z,39.57
2018-02-25T03:45:28.683Z,36.13
2018-02-25T03:47:56.190Z,40.13
2018-02-25T03:50:23.735Z,38.17
2018-02-25T03:52:51.242Z,36.40
2018-02-25T03:55:18.851Z,35.00
2018-02-25T03:57:46.360Z,41.23
2018-02-25T04:00:13.975Z,39.73
2018-02-25T04:02:41.531Z,32.47
2018-02-25T04:05:09.038Z,35.57
2018-02-25T04:07:36.566Z,31.87
2018-02-25T04:10:04.074Z,34.83
2018-02-25T04:12:32.366Z,32.83
2018-02-25T04:15:00.638Z,40.00
2018-02-25T04:17:28.939Z,42.87
2018-02-25T04:19:56.494Z,34.93
2018-02-25T04:22:24.026Z,44.60
2018-02-25T04:24:52.298Z,51.00
2018-02-25T04:27:20.594Z,45.60
2018-02-25T04:29:48.099Z,36.43
2018-02-25T04:32:15.723Z,37.13
2018-02-25T04:34:43.278Z,40.60
2018-02-25T04:37:10.833Z,31.30
2018-02-25T04:39:38.399Z,44.77
2018-02-25T04:42:05.926Z,41.90
2018-02-25T04:44:34.234Z,45.00
2018-02-25T04:47:01.763Z,48.60
2018-02-25T04:49:30.036Z,43.37
2018-02-25T04:51:58.331Z,41.73
2018-02-25T04:54:26.623Z,44.17
2018-02-25T04:56:54.154Z,38.13
2018-02-25T04:59:22.431Z,43.17
2018-02-25T05:01:50.739Z,40.93
2018-02-25T05:04:18.255Z,43.17
2018-02-25T05:06:45.852Z,49.70
2018-02-25T05:09:13.410Z,43.07
2018-02-25T05:11:40.976Z,34.90
2018-02-25T05:14:08.503Z,38.80
2018-02-25T05:16:36.775Z,38.57
2018-02-25T05:19:05.079Z,52.33
2018-02-25T05:21:32.590Z,45.57
2018-02-25T05:24:00.190Z,43.90
2018-02-25T05:26:27.702Z,43.13
2018-02-25T05:28:55.227Z,42.80
2018-02-25T05:31:22.734Z,44.27
2018-02-25T05:33:50.267Z,39.47
2018-02-25T05:36:17.776Z,37.27
2018-02-25T05:38:46.070Z,42.60
2018-02-25T05:41:13.622Z,40.77
2018-02-25T05:43:41.150Z,45.73
2018-02-25T05:46:09.418Z,49.23
2018-02-25T05:48:37.012Z,41.37
2018-02-25T05:51:04.521Z,39.10
2018-02-25T05:53:32.129Z,45.13
2018-02-25T05:55:59.643Z,46.87
2018-02-25T05:58:27.167Z,43.67
2018-02-25T06:00:54.675Z,42.50
2018-02-25T06:03:22.970Z,48.30
2018-02-25T06:05:51.247Z,41.47
2018-02-25T06:08:19.518Z,52.80
2018-02-25T06:10:47.810Z,42.17
2018-02-25T06:13:15.371Z,38.83
2018-02-25T06:15:42.898Z,49.17
2018-02-25T06:18:11.202Z,53.53
2018-02-25T06:20:38.727Z,41.80
2018-02-25T06:23:06.244Z,38.67
2018-02-25T06:25:33.791Z,40.97
2018-02-25T06:28:01.338Z,41.30
2018-02-25T06:30:28.866Z,44.33
2018-02-25T06:32:57.146Z,53.10
2018-02-25T06:35:25.436Z,41.43
2018-02-25T06:37:53.714Z,45.37
2018-02-25T06:40:21.240Z,37.17
2018-02-25T06:42:48.838Z,43.70
2018-02-25T06:45:16.362Z,53.43
2018-02-25T06:47:43.868Z,39.13
2018-02-25T06:50:11.394Z,34.43
2018-02-25T06:52:39.667Z,52.37
2018-02-25T06:55:07.972Z,42.53
2018-02-25T06:57:35.481Z,35.73
2018-02-25T07:00:03.022Z,47.70
2018-02-25T07:02:30.530Z,45.13
2018-02-25T07:04:58.919Z,40.63
2018-02-25T07:07:26.426Z,43.07
2018-02-25T07:09:53.950Z,40.80
2018-02-25T07:12:21.478Z,43.07
2018-02-25T07:14:49.758Z,40.50
2018-02-25T07:17:17.300Z,40.40
2018-02-25T07:19:44.810Z,42.43
2018-02-25T07:22:13.061Z,45.77
2018-02-25T07:24:40.570Z,51.47
2018-02-25T07:27:08.096Z,44.30
2018-02-25T07:29:35.599Z,39.93
2018-02-25T07:32:03.915Z,36.97
2018-02-25T07:34:31.475Z,41.93
2018-02-25T07:36:59.035Z,32.63
2018-02-25T07:39:26.542Z,42.80
2018-02-25T07:41:54.063Z,41.77
2018-02-25T07:44:21.567Z,38.73
2018-02-25T07:46:49.902Z,37.87
2018-02-25T07:49:17.390Z,40.00
2018-02-25T07:51:44.910Z,37.43
2018-02-25T07:54:12.563Z,37.23
2018-02-25T07:56:40.086Z,36.50
2018-02-25T07:59:07.591Z,32.77
2018-02-25T08:01:35.111Z,32.63
2018-02-25T08:04:03.376Z,32.83
2018-02-25T08:06:31.672Z,42.57
2018-02-25T08:08:59.970Z,32.03
2018-02-25T08:11:27.522Z,37.70
2018-02-25T08:13:55.034Z,34.40
2018-02-25T08:16:22.542Z,31.20
2018-02-25T08:18:50.067Z,34.90
2018-02-25T08:21:18.339Z,32.10
2018-02-25T08:23:45.926Z,42.43
2018-02-25T08:26:13.434Z,20.23
2018-02-25T08:28:40.950Z,26.57
2018-02-25T08:31:08.459Z,35.03
2018-02-25T08:33:36.064Z,34.93
2018-02-25T08:36:03.570Z,29.87
2018-02-25T08:38:31.091Z,34.37
2018-02-25T08:40:58.599Z,32.37
2018-02-25T08:43:26.121Z,39.73
2018-02-25T08:45:53.621Z,33.87
2018-02-25T08:48:21.142Z,35.07
2018-02-25T08:50:48.652Z,31.93
2018-02-25T08:53:17.151Z,33.03
2018-02-25T08:55:44.655Z,18.73
2018-02-25T08:58:12.170Z,29.50
2018-02-25T09:00:39.674Z,28.07
2018-02-25T09:03:07.191Z,19.00
2018-02-25T09:05:34.699Z,26.67
2018-02-25T09:08:02.298Z,21.83
2018-02-25T09:10:29.862Z,28.33
2018-02-25T09:12:57.394Z,28.20
2018-02-25T09:15:25.662Z,29.10
2018-02-25T09:17:53.975Z,27.93
2018-02-25T09:20:21.535Z,30.03
2018-02-25T09:22:49.037Z,23.70
2018-02-25T09:25:16.559Z,24.00
2018-02-25T09:27:44.306Z,21.70
2018-02-25T09:30:11.912Z,18.57
2018-02-25T09:32:39.382Z,18.80
2018-02-25T09:35:06.903Z,22.50
2018-02-25T09:37:34.411Z,32.83
2018-02-25T09:40:02.694Z,22.77
2018-02-25T09:42:30.965Z,19.30
2018-02-25T09:44:59.267Z,19.33
2018-02-25T09:47:26.970Z,23.00
2018-02-25T09:49:54.593Z,21.00
2018-02-25T09:52:22.107Z,19.50
2018-02-25T09:54:49.626Z,20.80
2018-02-25T09:57:17.130Z,26.00
2018-02-25T09:59:44.646Z,23.87
2018-02-25T10:02:12.711Z,22.87
2018-02-25T10:04:41.098Z,15.43
2018-02-25T10:07:08.598Z,22.27
2018-02-25T10:09:37.626Z,19.00
2018-02-25T10:12:05.139Z,19.43
2018-02-25T10:14:32.657Z,21.47
2018-02-25T10:17:00.158Z,23.87
2018-02-25T10:19:27.670Z,17.20
2018-02-25T10:21:55.187Z,19.03
2018-02-25T10:24:23.482Z,15.07
2018-02-25T10:26:51.750Z,21.00
2018-02-25T10:29:20.035Z,24.10
2018-02-25T10:31:47.530Z,25.47
2018-02-25T10:34:15.099Z,22.37
2018-02-25T10:36:42.610Z,23.13
2018-02-25T10:39:10.126Z,19.87
2018-02-25T10:41:37.647Z,25.63
2018-02-25T10:44:05.150Z,23.03
2018-02-25T10:46:32.754Z,17.90
2018-02-25T10:49:00.258Z,15.03
2018-02-25T10:51:27.778Z,23.97
2018-02-25T10:53:55.275Z,26.33
2018-02-25T10:56:22.792Z,22.97
2018-02-25T10:58:50.339Z,26.03
2018-02-25T11:01:17.859Z,20.30
2018-02-25T11:03:45.358Z,20.60
2018-02-25T11:06:12.882Z,23.80
2018-02-25T11:08:40.377Z,19.70
2018-02-25T11:11:07.943Z,17.00
2018-02-25T11:13:35.442Z,12.40
2018-02-25T11:16:02.958Z,20.30
2018-02-25T11:18:30.474Z,22.60
2018-02-25T11:20:58.007Z,15.37
2018-02-25T11:23:25.507Z,18.83
2018-02-25T11:25:53.765Z,27.73
2018-02-25T11:28:21.358Z,21.93
2018-02-25T11:30:48.915Z,10.30
2018-02-25T11:33:16.475Z,20.90
2018-02-25T11:35:44.034Z,14.40
2018-02-25T11:38:11.551Z,11.93
2018-02-25T11:40:39.051Z,25.70
2018-02-25T11:43:06.566Z,15.97
2018-02-25T11:45:34.205Z,17.57
2018-02-25T11:48:01.731Z,13.83
2018-02-25T11:50:29.239Z,19.40
2018-02-25T11:52:56.753Z,15.77
2018-02-25T11:55:24.321Z,14.23
2018-02-25T11:57:52.613Z,24.47
2018-02-25T12:00:20.127Z,15.03
2018-02-25T12:02:48.414Z,19.17
2018-02-25T12:05:15.974Z,12.30
2018-02-25T12:07:43.490Z,13.03
2018-02-25T12:10:11.096Z,18.60
2018-02-25T12:12:38.619Z,12.80
2018-02-25T12:15:06.893Z,13.73
2018-02-25T12:17:34.483Z,12.53
2018-02-25T12:20:02.042Z,14.80
2018-02-25T12:22:29.576Z,15.70
2018-02-25T12:24:57.846Z,13.13
2018-02-25T12:27:25.351Z,14.03
2018-02-25T12:29:52.879Z,9.83
2018-02-25T12:32:21.153Z,18.10
2018-02-25T12:34:49.442Z,16.10
2018-02-25T12:37:17.003Z,20.73
2018-02-25T12:39:44.576Z,19.60
2018-02-25T12:42:12.514Z,17.70
2018-02-25T12:44:40.811Z,14.00
2018-02-25T12:47:08.371Z,16.37
2018-02-25T12:49:35.894Z,19.30
2018-02-25T12:52:03.397Z,21.37
2018-02-25T12:54:30.918Z,19.67
2018-02-25T12:56:59.182Z,17.53
2018-02-25T12:59:26.775Z,21.97
2018-02-25T13:01:54.333Z,18.03
2018-02-25T13:04:21.856Z,16.30
2018-02-25T13:06:49.363Z,19.57
2018-02-25T13:09:16.882Z,15.43
2018-02-25T13:11:45.152Z,20.47
2018-02-25T13:14:12.670Z,25.93
2018-02-25T13:16:40.171Z,21.07
2018-02-25T13:19:07.692Z,18.87
2018-02-25T13:21:35.195Z,20.17
2018-02-25T13:24:03.467Z,28.00
2018-02-25T13:26:31.753Z,18.40
2018-02-25T13:29:00.027Z,21.63
2018-02-25T13:31:28.415Z,19.00
2018-02-25T13:33:56.686Z,21.47
2018-02-25T13:36:24.970Z,16.53
2018-02-25T13:38:52.462Z,14.73
2018-02-25T13:41:19.987Z,24.13
2018-02-25T13:43:47.492Z,25.20
2018-02-25T13:46:15.006Z,24.70
2018-02-25T13:48:42.515Z,20.20
2018-02-25T13:51:10.038Z,29.83
2018-02-25T13:53:37.542Z,19.43
2018-02-25T13:56:05.069Z,17.70
2018-02-25T13:58:32.571Z,20.60
2018-02-25T14:01:00.856Z,19.30
2018-02-25T14:03:29.130Z,19.10
2018-02-25T14:05:57.522Z,21.57
2018-02-25T14:08:25.090Z,22.87
2018-02-25T14:10:52.610Z,20.20
2018-02-25T14:13:20.209Z,17.77
2018-02-25T14:15:48.030Z,23.13
2018-02-25T14:18:15.626Z,17.87
2018-02-25T14:20:43.195Z,22.97
2018-02-25T14:23:10.746Z,16.80
2018-02-25T14:25:38.263Z,23.03
2018-02-25T14:28:05.863Z,22.57
2018-02-25T14:30:33.380Z,29.10
2018-02-25T14:33:00.910Z,19.53
2018-02-25T14:35:28.426Z,27.83
2018-02-25T14:37:56.715Z,21.93
2018-02-25T14:40:24.220Z,25.17
2018-02-25T14:42:51.731Z,20.53
2018-02-25T14:45:19.229Z,22.17
2018-02-25T14:47:46.748Z,19.43
2018-02-25T14:50:14.250Z,17.70
2018-02-25T14:52:41.776Z,22.27
2018-02-25T14:55:09.279Z,20.87
2018-02-25T14:57:36.794Z,24.50
2018-02-25T15:00:04.338Z,27.07
2018-02-25T15:02:31.854Z,20.67
2018-02-25T15:04:59.358Z,26.83
2018-02-25T15:07:26.919Z,20.30
2018-02-25T15:09:54.430Z,23.53
2018-02-25T15:12:21.950Z,25.80
2018-02-25T15:14:49.454Z,24.30
2018-02-25T15:17:16.970Z,31.20
2018-02-25T15:19:44.470Z,22.37
2018-02-25T15:22:11.986Z,25.03
2018-02-25T15:24:39.486Z,22.30
2018-02-25T15:27:07.013Z,22.77
2018-02-25T15:29:34.514Z,23.07
2018-02-25T15:32:02.785Z,20.80
2018-02-25T15:34:31.078Z,32.90
2018-02-25T15:36:59.344Z,24.67
2018-02-25T15:39:27.634Z,27.67
2018-02-25T15:41:55.135Z,18.90
2018-02-25T15:44:22.750Z,22.00
2018-02-25T15:46:50.254Z,21.13
2018-02-25T15:49:17.880Z,19.37
2018-02-25T15:51:45.434Z,22.33
2018-02-25T15:54:12.955Z,23.10
2018-02-25T15:56:40.460Z,20.73
2018-02-25T15:59:08.009Z,26.30
2018-02-25T16:01:35.515Z,24.83
2018-02-25T16:04:03.036Z,23.90
2018-02-25T16:06:30.585Z,22.13
2018-02-25T16:08:58.146Z,24.20
2018-02-25T16:11:25.697Z,27.70
2018-02-25T16:13:53.186Z,21.47
2018-02-25T16:16:20.687Z,21.30
2018-02-25T16:18:48.274Z,26.13
2018-02-25T16:21:15.869Z,19.43
2018-02-25T16:23:43.440Z,34.30
2018-02-25T16:26:10.915Z,27.17
2018-02-25T16:28:38.449Z,28.97
2018-02-25T16:31:05.983Z,24.93
2018-02-25T16:33:33.498Z,18.63
2018-02-25T16:36:01.010Z,24.80
2018-02-25T16:38:28.510Z,23.87
2018-02-25T16:40:56.022Z,22.33
2018-02-25T16:43:23.518Z,23.63
2018-02-25T16:45:51.039Z,24.23
2018-02-25T16:48:18.552Z,26.50
2018-02-25T16:50:46.840Z,28.50
2018-02-25T16:53:15.126Z,28.10
2018-02-25T16:55:42.650Z,20.67
2018-02-25T16:58:10.150Z,24.77
2018-02-25T17:00:37.709Z,25.73
2018-02-25T17:03:05.215Z,27.57
2018-02-25T17:05:32.739Z,27.23
2018-02-25T17:08:00.234Z,24.37
2018-02-25T17:10:27.761Z,28.57
2018-02-25T17:12:55.266Z,27.00
2018-02-25T17:15:23.614Z,27.43
2018-02-25T17:17:51.091Z,28.93
2018-02-25T17:20:18.610Z,31.63
2018-02-25T17:22:46.115Z,29.27
2018-02-25T17:25:13.637Z,25.27
2018-02-25T17:27:41.147Z,20.80
2018-02-25T17:30:09.433Z,26.77
2018-02-25T17:32:36.938Z,26.40
2018-02-25T17:35:04.555Z,31.00
2018-02-25T17:37:32.060Z,25.57
2018-02-25T17:39:59.700Z,27.50
2018-02-25T17:42:27.230Z,22.90
2018-02-25T17:44:54.750Z,23.00
2018-02-25T17:47:22.355Z,24.40
2018-02-25T17:49:49.870Z,20.97
2018-02-25T17:52:17.467Z,21.70
2018-02-25T17:54:44.987Z,30.37
2018-02-25T17:57:12.494Z,30.90
2018-02-25T17:59:40.020Z,26.83
2018-02-25T18:02:08.317Z,33.70
2018-02-25T18:04:35.839Z,30.57
2018-02-25T18:07:03.344Z,30.03
2018-02-25T18:09:30.871Z,28.77
2018-02-25T18:11:59.153Z,32.87
2018-02-25T18:14:26.678Z,27.53
2018-02-25T18:16:54.182Z,23.87
2018-02-25T18:19:21.707Z,22.30
2018-02-25T18:21:50.015Z,23.43
2018-02-25T18:24:17.574Z,26.50
2018-02-25T18:26:45.096Z,21.70
2018-02-25T18:29:12.607Z,20.83
2018-02-25T18:31:40.418Z,23.83
2018-02-25T18:34:07.923Z,25.40
2018-02-25T18:36:35.479Z,25.90
2018-02-25T18:39:03.751Z,28.43
2018-02-25T18:41:31.278Z,26.43
2018-02-25T18:43:58.786Z,24.10
2018-02-25T18:46:26.327Z,31.80
2018-02-25T18:48:53.831Z,26.40
2018-02-25T18:51:21.362Z,32.20
2018-02-25T18:53:48.880Z,26.87
2018-02-25T18:56:17.171Z,30.60
2018-02-25T18:58:44.678Z,37.43
2018-02-25T19:01:12.199Z,31.50
2018-02-25T19:03:39.718Z,28.93
2018-02-25T19:06:07.242Z,29.50
2018-02-25T19:08:34.747Z,23.90
2018-02-25T19:11:03.030Z,24.20
2018-02-25T19:13:31.298Z,20.77
2018-02-25T19:15:59.583Z,26.07
2018-02-25T19:18:27.871Z,29.27
2018-02-25T19:20:55.392Z,32.03
2018-02-25T19:23:22.903Z,24.70
2018-02-25T19:25:50.422Z,29.03
2018-02-25T19:28:18.700Z,24.93
2018-02-25T19:30:47.098Z,26.07
2018-02-25T19:33:14.611Z,31.27
2018-02-25T19:35:47.927Z,33.07
2018-02-25T19:41:25.655Z,39.33
2018-02-25T19:43:53.943Z,34.50
2018-02-25T19:46:21.478Z,32.30
2018-02-25T19:48:49.754Z,30.90
2018-02-25T19:51:18.045Z,34.10
2018-02-25T19:53:46.320Z,35.60
2018-02-25T19:56:14.614Z,34.20
2018-02-25T19:58:42.126Z,35.40
2018-02-25T20:01:09.727Z,29.97
2018-02-25T20:03:37.237Z,32.37
2018-02-25T20:06:04.842Z,40.80
2018-02-25T20:08:32.403Z,33.73
2018-02-25T20:10:59.926Z,34.10
2018-02-25T20:13:28.206Z,43.03
2018-02-25T20:15:55.730Z,44.20
2018-02-25T20:18:23.243Z,41.97
2018-02-25T20:20:51.531Z,43.70
2018-02-25T20:23:19.042Z,39.90
2018-02-25T20:25:46.571Z,44.80
2018-02-25T20:28:14.074Z,38.57
2018-02-25T20:30:42.362Z,34.60
2018-02-25T20:33:10.634Z,29.13
2018-02-25T20:35:38.932Z,33.00
2018-02-25T20:38:06.448Z,35.20
2018-02-25T20:40:33.999Z,34.30
2018-02-25T20:43:01.613Z,40.07
2018-02-25T20:45:29.180Z,29.90
2018-02-25T20:47:56.689Z,33.33
2018-02-25T20:50:24.202Z,40.90
2018-02-25T20:52:51.727Z,29.37
2018-02-25T20:55:19.299Z,29.50
2018-02-25T20:57:46.822Z,31.90
2018-02-25T21:00:14.346Z,30.20
2018-02-25T21:02:41.871Z,35.23
2018-02-25T21:05:09.543Z,30.53
2018-02-25T21:07:37.071Z,36.57
2018-02-25T21:10:05.346Z,44.40
2018-02-25T21:12:33.662Z,46.13
2018-02-25T21:15:01.174Z,35.73
2018-02-25T21:17:28.699Z,38.43
2018-02-25T21:19:56.210Z,45.43
2018-02-25T21:22:24.498Z,44.07
2018-02-25T21:24:52.015Z,42.97
2018-02-25T21:27:19.555Z,41.30
2018-02-25T21:29:47.063Z,34.43
2018-02-25T21:32:15.354Z,41.30
2018-02-25T21:34:42.889Z,37.87
2018-02-25T21:37:11.217Z,40.13
2018-02-25T21:39:38.726Z,34.73
2018-02-25T21:42:07.031Z,33.30
2018-02-25T21:44:34.548Z,39.70
2018-02-25T21:47:02.870Z,38.07
2018-02-25T21:49:30.458Z,43.90
2018-02-25T21:51:57.986Z,37.60
2018-02-25T21:54:31.395Z,39.53
2018-02-25T21:57:04.570Z,32.30
2018-02-25T21:59:37.819Z,36.77
2018-02-25T22:02:11.942Z,24.60
2018-02-25T22:04:40.253Z,40.60
2018-02-25T22:07:07.778Z,40.40
2018-02-25T22:09:36.055Z,31.63
2018-02-25T22:12:04.343Z,38.67
2018-02-25T22:14:32.626Z,37.77
2018-02-25T22:17:00.310Z,39.90
2018-02-25T22:19:27.822Z,39.57
2018-02-25T22:21:56.122Z,34.30
2018-02-25T22:24:23.625Z,32.00
2018-02-25T22:26:51.303Z,37.23
2018-02-25T22:29:18.859Z,39.60
2018-02-25T22:31:46.481Z,43.43
2018-02-25T22:34:14.010Z,41.10
2018-02-25T22:36:42.361Z,42.57
2018-02-25T22:39:09.958Z,39.97
2018-02-25T22:41:37.479Z,42.50
2018-02-25T22:44:04.983Z,37.63
2018-02-25T22:46:32.635Z,32.20
2018-02-25T22:49:00.198Z,50.03
2018-02-25T22:51:27.706Z,37.40
2018-02-25T22:53:55.234Z,48.13
2018-02-25T22:56:22.738Z,44.90
2018-02-25T22:58:50.261Z,39.23
2018-02-25T23:01:17.766Z,38.60
2018-02-25T23:03:46.056Z,42.80
2018-02-25T23:06:13.622Z,47.90
2018-02-25T23:08:41.146Z,53.53
2018-02-25T23:11:08.650Z,47.73
2018-02-25T23:13:36.234Z,53.43
2018-02-25T23:16:03.706Z,48.73
2018-02-25T23:18:31.236Z,44.97
2018-02-25T23:20:58.751Z,40.70
2018-02-25T23:23:27.047Z,56.93
2018-02-25T23:25:54.554Z,39.20
2018-02-25T23:28:22.091Z,47.00
2018-02-25T23:30:49.594Z,39.40
2018-02-25T23:33:17.903Z,42.37
2018-02-25T23:35:45.422Z,39.80
2018-02-25T23:38:13.018Z,39.70
2018-02-25T23:40:40.522Z,33.70
2018-02-25T23:43:08.048Z,42.07
2018-02-25T23:45:35.561Z,39.43
2018-02-25T23:48:03.858Z,43.10
2018-02-25T23:50:31.366Z,45.43
2018-02-25T23:52:58.891Z,36.70
2018-02-25T23:55:26.394Z,32.70
2018-02-25T23:57:53.999Z,40.40
